createdAt,value
2023-05-03T00:00:44.641Z,12.83
2023-05-03T00:03:32.054Z,12.85
2023-05-03T00:06:18.431Z,12.74
2023-05-03T00:09:05.271Z,12.45
2023-05-03T00:11:51.632Z,12.09
2023-05-03T00:14:38.387Z,12.00
2023-05-03T00:17:25.043Z,12.03
2023-05-03T00:20:12.380Z,11.90
2023-05-03T00:22:58.932Z,11.85
2023-05-03T00:25:45.554Z,11.88
2023-05-03T00:28:32.165Z,11.79
2023-05-03T00:31:19.637Z,11.84
2023-05-03T00:34:05.744Z,11.74
2023-05-03T00:36:52.333Z,11.97
2023-05-03T00:39:38.475Z,12.01
2023-05-03T00:42:24.892Z,12.10
2023-05-03T00:45:11.327Z,12.07
2023-05-03T00:47:58.200Z,12.34
2023-05-03T00:50:44.922Z,12.04
2023-05-03T00:53:31.954Z,12.14
2023-05-03T00:56:21.313Z,12.35
2023-05-03T00:59:08.815Z,12.45
2023-05-03T01:01:55.195Z,12.44
2023-05-03T01:04:43.312Z,12.32
2023-05-03T01:07:48.705Z,12.42
2023-05-03T01:10:50.586Z,12.48
2023-05-03T01:14:26.014Z,12.53
2023-05-03T01:17:13.679Z,12.51
2023-05-03T01:20:14.308Z,12.48
2023-05-03T01:23:19.600Z,12.56
2023-05-03T01:26:35.773Z,12.57
2023-05-03T01:29:22.380Z,12.43
2023-05-03T01:32:15.263Z,12.17
2023-05-03T01:35:09.857Z,12.31
2023-05-03T01:40:51.520Z,12.39
2023-05-03T01:43:39.673Z,12.41
2023-05-03T01:46:27.715Z,12.42
2023-05-03T01:49:14.198Z,12.31
2023-05-03T01:52:01.339Z,12.38
2023-05-03T01:54:47.783Z,12.55
2023-05-03T01:57:35.042Z,12.39
2023-05-03T02:00:22.352Z,12.49
2023-05-03T02:03:09.419Z,12.39
2023-05-03T02:05:56.088Z,12.36
2023-05-03T02:08:42.842Z,12.27
2023-05-03T02:11:30.244Z,12.29
2023-05-03T02:14:17.357Z,12.23
2023-05-03T02:17:04.690Z,12.22
2023-05-03T02:19:54.931Z,12.30
2023-05-03T02:22:42.650Z,12.29
2023-05-03T02:25:30.233Z,12.02
2023-05-03T02:28:17.765Z,12.30
2023-05-03T02:31:06.834Z,11.98
2023-05-03T02:33:53.322Z,12.26
2023-05-03T02:36:40.533Z,12.18
2023-05-03T02:39:27.252Z,12.03
2023-05-03T02:42:14.837Z,11.98
2023-05-03T02:45:03.468Z,11.97
2023-05-03T02:47:50.689Z,11.84
2023-05-03T02:50:38.681Z,11.87
2023-05-03T02:53:25.732Z,11.92
2023-05-03T02:56:15.017Z,11.89
2023-05-03T02:59:01.888Z,11.77
2023-05-03T03:01:47.864Z,11.85
2023-05-03T03:04:35.588Z,11.91
2023-05-03T03:07:21.894Z,11.88
2023-05-03T03:10:09.119Z,11.95
2023-05-03T03:12:55.466Z,11.93
2023-05-03T03:15:48.136Z,11.86
2023-05-03T03:18:37.295Z,11.92
2023-05-03T03:21:24.063Z,11.95
2023-05-03T03:24:10.289Z,11.74
2023-05-03T03:26:56.826Z,11.85
2023-05-03T03:29:44.462Z,11.78
2023-05-03T03:32:33.036Z,11.92
2023-05-03T03:35:21.925Z,11.85
2023-05-03T03:38:08.830Z,11.92
2023-05-03T03:41:00.041Z,11.64
2023-05-03T03:43:47.564Z,11.93
2023-05-03T03:46:38.150Z,11.84
2023-05-03T03:49:25.611Z,11.75
2023-05-03T03:52:12.884Z,11.87
2023-05-03T03:55:00.202Z,11.88
2023-05-03T03:57:47.167Z,11.67
2023-05-03T04:00:34.925Z,11.97
2023-05-03T04:03:27.659Z,11.86
2023-05-03T04:06:14.324Z,11.89
2023-05-03T04:09:01.006Z,11.82
2023-05-03T04:11:48.771Z,11.62
2023-05-03T04:14:35.231Z,11.90
2023-05-03T04:17:22.557Z,11.81
2023-05-03T04:20:11.315Z,11.95
2023-05-03T04:23:00.560Z,12.06
2023-05-03T04:25:49.192Z,12.02
2023-05-03T04:28:39.023Z,12.00
2023-05-03T04:31:27.299Z,12.03
2023-05-03T04:34:16.352Z,12.05
2023-05-03T04:37:06.382Z,12.05
2023-05-03T04:39:53.896Z,12.13
2023-05-03T04:42:41.451Z,12.13
2023-05-03T04:45:28.640Z,11.95
2023-05-03T04:48:18.206Z,12.16
2023-05-03T04:51:05.303Z,12.16
2023-05-03T04:53:51.460Z,11.76
2023-05-03T04:56:40.545Z,12.18
2023-05-03T04:59:34.899Z,12.12
2023-05-03T05:02:21.770Z,12.34
2023-05-03T05:05:09.550Z,12.36
2023-05-03T05:07:56.181Z,12.43
2023-05-03T05:10:43.026Z,12.41
2023-05-03T05:13:33.002Z,12.38
2023-05-03T05:16:19.615Z,12.43
2023-05-03T05:19:12.528Z,12.49
2023-05-03T05:21:59.088Z,12.56
2023-05-03T05:24:57.288Z,12.66
2023-05-03T05:27:45.521Z,12.72
2023-05-03T05:30:33.116Z,12.59
2023-05-03T05:33:21.843Z,12.76
2023-05-03T05:36:09.986Z,12.64
2023-05-03T05:38:56.430Z,12.57
2023-05-03T05:41:43.591Z,12.88
2023-05-03T05:44:30.423Z,12.79
2023-05-03T05:47:16.747Z,12.86
2023-05-03T05:50:14.953Z,12.86
2023-05-03T05:53:09.253Z,12.81
2023-05-03T05:55:59.254Z,12.56
2023-05-03T05:58:47.362Z,12.79
2023-05-03T06:01:34.547Z,12.85
2023-05-03T06:04:21.256Z,12.83
2023-05-03T06:07:08.371Z,12.70
2023-05-03T06:09:55.647Z,12.65
2023-05-03T06:12:41.622Z,12.89
2023-05-03T06:15:33.766Z,12.96
2023-05-03T06:18:20.971Z,12.74
2023-05-03T06:21:08.171Z,12.90
2023-05-03T06:23:56.159Z,13.17
2023-05-03T06:26:43.531Z,13.07
2023-05-03T06:29:30.454Z,13.02
2023-05-03T06:32:19.305Z,13.19
2023-05-03T06:35:09.280Z,12.75
2023-05-03T06:37:59.633Z,12.89
2023-05-03T06:40:47.244Z,12.83
2023-05-03T06:43:34.959Z,12.75
2023-05-03T06:46:26.306Z,12.80
2023-05-03T06:49:12.675Z,12.77
2023-05-03T06:52:01.890Z,12.86
2023-05-03T06:54:49.457Z,13.21
2023-05-03T06:57:35.821Z,13.08
2023-05-03T07:00:23.313Z,13.06
2023-05-03T07:03:13.209Z,13.23
2023-05-03T07:06:00.903Z,13.22
2023-05-03T07:08:47.158Z,12.97
2023-05-03T07:11:37.300Z,13.28
2023-05-03T07:14:24.439Z,13.35
2023-05-03T07:17:10.966Z,13.60
2023-05-03T07:19:57.151Z,13.73
2023-05-03T07:22:43.605Z,13.83
2023-05-03T07:25:30.193Z,13.90
2023-05-03T07:28:17.224Z,13.68
2023-05-03T07:31:05.265Z,13.82
2023-05-03T07:33:54.336Z,14.13
2023-05-03T07:36:42.792Z,14.33
2023-05-03T07:39:31.887Z,14.18
2023-05-03T07:42:25.622Z,14.22
2023-05-03T07:45:16.250Z,14.53
2023-05-03T07:48:04.828Z,14.68
2023-05-03T07:50:52.269Z,14.89
2023-05-03T07:53:42.340Z,14.88
2023-05-03T07:56:30.020Z,14.63
2023-05-03T07:59:17.212Z,14.57
2023-05-03T08:02:04.378Z,14.54
2023-05-03T08:04:53.253Z,14.59
2023-05-03T08:07:42.319Z,14.77
2023-05-03T08:10:28.983Z,14.93
2023-05-03T08:13:17.592Z,15.13
2023-05-03T08:16:06.065Z,15.01
2023-05-03T08:18:53.156Z,14.86
2023-05-03T08:21:39.436Z,14.94
2023-05-03T08:24:27.312Z,14.81
2023-05-03T08:27:13.878Z,14.77
2023-05-03T08:30:02.049Z,14.68
2023-05-03T08:32:48.377Z,14.86
2023-05-03T08:35:35.439Z,14.72
2023-05-03T08:38:22.738Z,14.59
2023-05-03T08:41:26.393Z,14.75
2023-05-03T08:44:13.713Z,14.99
2023-05-03T08:47:01.466Z,15.18
2023-05-03T08:49:48.960Z,15.11
2023-05-03T08:52:38.156Z,15.08
2023-05-03T08:55:24.957Z,15.24
2023-05-03T08:58:13.121Z,15.12
2023-05-03T09:01:05.265Z,15.12
2023-05-03T09:03:53.097Z,15.15
2023-05-03T09:06:40.569Z,15.07
2023-05-03T09:09:34.576Z,15.04
2023-05-03T09:12:34.838Z,15.18
2023-05-03T09:15:22.743Z,15.12
2023-05-03T09:18:19.961Z,14.89
2023-05-03T09:21:11.792Z,15.12
2023-05-03T09:24:02.885Z,15.03
2023-05-03T09:26:51.963Z,14.98
2023-05-03T09:29:38.366Z,14.85
2023-05-03T09:32:25.359Z,14.78
2023-05-03T09:35:13.954Z,14.80
2023-05-03T09:38:01.830Z,15.11
2023-05-03T09:40:49.996Z,15.30
2023-05-03T09:43:49.816Z,15.38
2023-05-03T09:46:37.474Z,15.22
2023-05-03T09:49:24.882Z,15.23
2023-05-03T09:52:12.503Z,14.83
2023-05-03T09:54:59.354Z,15.02
2023-05-03T09:57:49.180Z,14.91
2023-05-03T10:00:40.543Z,14.95
2023-05-03T10:03:33.194Z,14.84
2023-05-03T10:06:32.120Z,15.22
2023-05-03T10:09:42.170Z,15.35
2023-05-03T10:12:29.085Z,15.38
2023-05-03T10:15:17.082Z,15.25
2023-05-03T10:18:06.718Z,15.11
2023-05-03T10:20:57.618Z,14.94
2023-05-03T10:24:16.596Z,14.50
2023-05-03T10:27:14.136Z,14.28
2023-05-03T10:30:05.611Z,14.55
2023-05-03T10:32:58.310Z,14.81
2023-05-03T10:35:56.057Z,14.93
2023-05-03T10:38:47.783Z,14.88
2023-05-03T10:41:37.945Z,14.94
2023-05-03T10:44:43.725Z,14.94
2023-05-03T10:47:38.701Z,14.79
2023-05-03T10:50:29.246Z,14.77
2023-05-03T10:53:36.276Z,14.58
2023-05-03T10:56:27.055Z,14.86
2023-05-03T10:59:20.565Z,14.79
2023-05-03T11:02:07.349Z,14.88
2023-05-03T11:05:01.087Z,14.91
2023-05-03T11:07:49.864Z,14.63
2023-05-03T11:10:36.949Z,14.34
2023-05-03T11:13:26.068Z,14.19
2023-05-03T11:16:16.191Z,14.43
2023-05-03T11:19:06.315Z,14.63
2023-05-03T11:21:55.255Z,14.74
2023-05-03T11:24:42.070Z,14.94
2023-05-03T11:27:30.239Z,15.11
2023-05-03T11:30:18.728Z,15.14
2023-05-03T11:33:10.306Z,15.00
2023-05-03T11:36:04.047Z,15.01
2023-05-03T11:38:52.294Z,15.09
2023-05-03T11:41:42.882Z,15.11
2023-05-03T11:44:32.723Z,15.04
2023-05-03T11:47:24.393Z,15.13
2023-05-03T11:50:13.594Z,14.94
2023-05-03T11:53:00.533Z,14.92
2023-05-03T11:55:49.883Z,14.90
2023-05-03T11:58:36.715Z,15.23
2023-05-03T12:01:29.177Z,15.40
2023-05-03T12:04:20.925Z,15.59
2023-05-03T12:07:19.548Z,15.76
2023-05-03T12:10:35.712Z,15.74
2023-05-03T12:13:40.700Z,15.70
2023-05-03T12:16:51.330Z,15.66
2023-05-03T12:19:48.532Z,15.56
2023-05-03T12:22:40.614Z,15.28
2023-05-03T12:25:34.082Z,15.08
2023-05-03T12:28:23.003Z,14.89
2023-05-03T12:36:49.185Z,14.57
2023-05-03T12:39:39.541Z,14.31
2023-05-03T12:42:29.045Z,14.21
2023-05-03T12:45:16.044Z,14.24
2023-05-03T12:48:03.822Z,14.22
2023-05-03T12:50:52.022Z,14.07
2023-05-03T12:53:39.372Z,14.17
2023-05-03T12:56:26.092Z,14.16
2023-05-03T13:04:58.807Z,14.77
2023-05-03T13:07:52.439Z,14.79
2023-05-03T13:10:44.156Z,14.84
2023-05-03T13:13:30.429Z,14.90
2023-05-03T13:16:17.443Z,15.04
2023-05-03T13:19:06.477Z,14.97
2023-05-03T13:21:53.406Z,14.90
2023-05-03T13:24:47.118Z,15.01
2023-05-03T13:27:36.763Z,15.07
2023-05-03T13:30:23.827Z,14.73
2023-05-03T13:33:12.657Z,15.02
2023-05-03T13:35:59.209Z,14.84
2023-05-03T13:38:46.300Z,15.05
2023-05-03T13:41:32.602Z,15.01
2023-05-03T13:44:19.720Z,14.89
2023-05-03T13:47:06.509Z,14.74
2023-05-03T13:49:57.735Z,14.90
2023-05-03T13:52:45.081Z,14.78
2023-05-03T13:55:32.163Z,14.76
2023-05-03T13:58:19.507Z,15.05
2023-05-03T14:01:06.871Z,15.04
2023-05-03T14:03:58.412Z,14.85
2023-05-03T14:06:47.155Z,14.83
2023-05-03T14:09:39.733Z,14.68
2023-05-03T14:12:27.754Z,14.74
2023-05-03T14:15:15.384Z,14.72
2023-05-03T14:18:04.936Z,14.69
2023-05-03T14:20:52.563Z,14.64
2023-05-03T14:23:40.546Z,14.63
2023-05-03T14:26:29.558Z,14.69
2023-05-03T14:29:16.890Z,14.62
2023-05-03T14:32:04.104Z,14.64
2023-05-03T14:34:50.695Z,14.63
2023-05-03T14:37:37.287Z,14.50
2023-05-03T14:40:23.704Z,14.34
2023-05-03T14:43:09.952Z,14.44
2023-05-03T14:45:57.377Z,14.28
2023-05-03T14:48:44.904Z,14.38
2023-05-03T14:51:32.397Z,14.33
2023-05-03T14:54:19.953Z,14.31
2023-05-03T14:57:05.826Z,14.34
2023-05-03T14:59:52.838Z,14.07
2023-05-03T15:02:39.109Z,13.79
2023-05-03T15:05:26.205Z,13.79
2023-05-03T15:08:17.638Z,13.77
2023-05-03T15:11:05.400Z,13.72
2023-05-03T15:13:53.045Z,13.67
2023-05-03T15:16:39.530Z,13.75
2023-05-03T15:19:26.933Z,13.93
2023-05-03T15:22:13.275Z,13.72
2023-05-03T15:24:59.832Z,13.60
2023-05-03T15:27:46.787Z,13.53
2023-05-03T15:30:34.503Z,13.45
2023-05-03T15:33:20.963Z,13.44
2023-05-03T15:36:08.722Z,13.35
2023-05-03T15:38:55.900Z,13.08
2023-05-03T15:41:42.847Z,13.28
2023-05-03T15:44:29.017Z,13.29
2023-05-03T15:47:15.855Z,13.40
2023-05-03T15:50:03.259Z,13.43
2023-05-03T15:52:50.401Z,13.46
2023-05-03T15:55:37.071Z,13.62
2023-05-03T15:58:25.564Z,13.72
2023-05-03T16:01:12.349Z,13.61
2023-05-03T16:03:59.817Z,13.74
2023-05-03T16:06:46.832Z,13.69
2023-05-03T16:09:34.339Z,13.58
2023-05-03T16:12:20.427Z,13.68
2023-05-03T16:15:08.709Z,13.51
2023-05-03T16:17:56.177Z,13.55
2023-05-03T16:20:43.409Z,13.47
2023-05-03T16:23:29.971Z,13.35
2023-05-03T16:26:19.525Z,13.22
2023-05-03T16:29:07.173Z,13.29
2023-05-03T16:31:55.322Z,13.43
2023-05-03T16:34:41.710Z,13.55
2023-05-03T16:37:31.019Z,13.64
2023-05-03T16:40:17.545Z,13.19
2023-05-03T16:43:10.470Z,13.40
2023-05-03T16:46:00.795Z,13.20
2023-05-03T16:48:48.213Z,13.29
2023-05-03T16:51:34.714Z,13.27
2023-05-03T16:54:21.307Z,13.27
2023-05-03T16:57:10.696Z,13.29
2023-05-03T17:00:04.917Z,13.34
2023-05-03T17:03:01.899Z,13.02
2023-05-03T17:05:57.145Z,13.13
2023-05-03T17:08:50.765Z,13.29
2023-05-03T17:11:51.213Z,13.27
2023-05-03T17:14:41.989Z,13.16
2023-05-03T17:17:34.407Z,13.10
2023-05-03T17:20:23.617Z,13.06
2023-05-03T17:23:16.490Z,12.81
2023-05-03T17:26:17.133Z,12.96
2023-05-03T17:29:08.608Z,12.90
2023-05-03T17:32:02.270Z,12.83
2023-05-03T17:34:56.868Z,12.86
2023-05-03T17:37:47.235Z,12.78
2023-05-03T17:40:47.775Z,12.87
2023-05-03T17:43:40.324Z,12.45
2023-05-03T17:46:37.120Z,13.24
2023-05-03T17:49:27.203Z,13.29
2023-05-03T17:52:20.247Z,13.43
2023-05-03T17:55:16.174Z,13.40
2023-05-03T17:58:12.096Z,13.72
2023-05-03T18:01:01.863Z,13.66
2023-05-03T18:03:49.864Z,13.67
2023-05-03T18:06:39.322Z,13.75
2023-05-03T18:13:10.323Z,13.27
2023-05-03T18:15:58.071Z,13.87
2023-05-03T18:18:51.148Z,13.85
2023-05-03T18:21:45.685Z,13.63
2023-05-03T18:24:43.822Z,13.85
2023-05-03T18:27:37.169Z,13.79
2023-05-03T18:30:29.517Z,13.85
2023-05-03T18:33:19.289Z,13.81
2023-05-03T18:36:12.294Z,13.77
2023-05-03T18:39:05.267Z,13.77
2023-05-03T18:42:03.168Z,13.75
2023-05-03T18:44:58.238Z,13.54
2023-05-03T18:47:52.261Z,13.69
2023-05-03T18:50:46.179Z,13.46
2023-05-03T18:53:37.218Z,13.64
2023-05-03T18:56:31.416Z,13.59
2023-05-03T18:59:21.022Z,13.58
2023-05-03T19:02:14.798Z,13.54
2023-05-03T19:05:04.744Z,13.53
2023-05-03T19:07:54.913Z,13.51
2023-05-03T19:10:42.522Z,13.48
2023-05-03T19:13:32.595Z,13.46
2023-05-03T19:16:23.383Z,13.43
2023-05-03T19:19:13.731Z,13.31
2023-05-03T19:22:02.804Z,13.37
2023-05-03T19:25:37.842Z,13.23
2023-05-03T19:28:43.728Z,12.86
2023-05-03T19:31:42.331Z,13.26
2023-05-03T19:34:52.879Z,13.26
2023-05-03T19:37:46.573Z,13.19
2023-05-03T19:40:58.559Z,13.12
2023-05-03T19:43:55.992Z,13.18
2023-05-03T19:47:26.129Z,13.10
2023-05-03T19:50:21.954Z,12.53
2023-05-03T19:53:28.143Z,12.37
2023-05-03T19:56:33.528Z,12.53
2023-05-03T19:59:26.322Z,12.94
2023-05-03T20:02:17.260Z,13.02
2023-05-03T20:05:05.730Z,13.02
2023-05-03T20:07:57.371Z,13.02
2023-05-03T20:10:46.315Z,13.00
2023-05-03T20:13:34.034Z,12.95
2023-05-03T20:16:21.813Z,12.97
2023-05-03T20:19:14.767Z,12.86
2023-05-03T20:22:01.218Z,12.88
2023-05-03T20:24:49.227Z,12.71
2023-05-03T20:27:36.402Z,12.70
2023-05-03T20:30:25.485Z,12.74
2023-05-03T20:33:11.626Z,12.66
2023-05-03T20:35:58.088Z,12.69
2023-05-03T20:38:46.319Z,12.72
2023-05-03T20:41:38.214Z,12.76
2023-05-03T20:44:26.089Z,12.75
2023-05-03T20:47:13.243Z,12.72
2023-05-03T20:50:00.069Z,12.69
2023-05-03T20:52:48.383Z,12.74
2023-05-03T20:55:35.546Z,12.71
2023-05-03T20:58:23.491Z,12.57
2023-05-03T21:01:10.329Z,12.58
2023-05-03T21:03:58.062Z,12.66
2023-05-03T21:06:45.450Z,12.62
2023-05-03T21:09:35.892Z,12.45
2023-05-03T21:12:24.250Z,12.58
2023-05-03T21:15:14.456Z,12.52
2023-05-03T21:18:10.037Z,12.42
2023-05-03T21:20:58.286Z,12.41
2023-05-03T21:23:48.153Z,12.30
2023-05-03T21:26:35.935Z,12.22
2023-05-03T21:29:22.429Z,12.05
2023-05-03T21:32:09.439Z,11.86
2023-05-03T21:34:56.213Z,11.93
2023-05-03T21:37:46.937Z,12.07
2023-05-03T21:40:39.861Z,12.09
2023-05-03T21:43:27.825Z,12.16
2023-05-03T21:46:16.086Z,12.28
2023-05-03T21:49:06.900Z,12.32
2023-05-03T21:51:54.136Z,12.31
2023-05-03T21:54:41.989Z,12.32
2023-05-03T21:57:28.366Z,12.04
2023-05-03T22:00:21.012Z,12.28
2023-05-03T22:03:09.348Z,12.24
2023-05-03T22:05:56.853Z,12.17
2023-05-03T22:08:45.476Z,12.19
2023-05-03T22:11:34.853Z,12.15
2023-05-03T22:14:22.077Z,11.95
2023-05-03T22:17:09.105Z,12.13
2023-05-03T22:19:58.639Z,11.97
2023-05-03T22:22:45.970Z,11.87
2023-05-03T22:25:32.751Z,11.58
2023-05-03T22:28:23.487Z,11.56
2023-05-03T22:31:11.061Z,11.61
2023-05-03T22:33:59.772Z,11.79
2023-05-03T22:36:49.965Z,11.88
2023-05-03T22:39:45.621Z,11.95
2023-05-03T22:42:33.392Z,12.00
2023-05-03T22:45:23.233Z,11.90
2023-05-03T22:48:10.381Z,11.98
2023-05-03T22:51:00.824Z,12.09
2023-05-03T22:53:47.776Z,12.02
2023-05-03T22:56:36.618Z,12.11
2023-05-03T22:59:26.374Z,12.02
2023-05-03T23:02:15.436Z,11.77
2023-05-03T23:05:02.466Z,11.76
2023-05-03T23:07:56.757Z,12.01
2023-05-03T23:10:52.201Z,12.00
2023-05-03T23:13:42.304Z,11.86
2023-05-03T23:16:28.950Z,11.84
2023-05-03T23:19:20.995Z,11.92
2023-05-03T23:22:07.612Z,11.86
2023-05-03T23:25:09.057Z,11.84
2023-05-03T23:27:58.420Z,11.79
2023-05-03T23:30:51.523Z,11.89
2023-05-03T23:33:46.263Z,11.27
2023-05-03T23:36:35.223Z,11.75
2023-05-03T23:39:28.237Z,11.84
2023-05-03T23:42:15.972Z,11.87
2023-05-03T23:45:04.738Z,11.82
2023-05-03T23:47:53.606Z,11.82
2023-05-03T23:50:39.844Z,11.80
2023-05-03T23:53:26.699Z,11.63
2023-05-03T23:56:14.006Z,11.73
2023-05-03T23:59:04.018Z,11.82
